Biscayne Park, Florida
Current Conditions -  °F | °C
As of 8:53 PM on Wednesday 26 Nov 2014 (Local Time) from KHWO Reporting Station
Clear Clear  
Wind Chill: 60°   Ceiling: Unl
Heat Index: 60°   Visibility: 10mi
Dew Point: 48°   Wind: 10mph
Humidity: 64%   Direction: 330°NNW
Pressure: 30.18"   Gusts: NA
Location:  25.9061°N, 80.1512°W
Report Text: KHWO 270153Z 33009KT 10SM CLR 16/09 A3018 RMK AO2 SLP220 T01560089
Loading
Personal Weather Stations






























Interactive Weather Map New forecast layout! Learn more

10-Day Weather Forecast

Advertisements
Track Severe Weather on mobile